Terminal Aerodrome Forecast
Issued by NWS Jackson, KY

Home | Current Version | Previous Version | Text Only | Print | Product List | Glossary On
Versions: 1 2 3 4 5 6 7 8 9 10 11 12 13 14 15 16 17 18 19 20 21 22 23 24 25 26 27
333
FTUS43 KJKL 081412 AAB
TAFJKL
TAF AMD
KJKL 081412Z 0814/0912 27007KT 5SM BR VCSH OVC015
      TEMPO 0814/0817 2SM -SHRASN BR OVC002
     FM081700 27007KT 3SM -SHRA VCTS BKN035CB
     FM082300 27006KT 3SM -SN BKN015
     FM090300 27005KT 2SM -SN OVC007=

USA.gov is the U.S. government's official web portal to all federal, state and local government web resources and services.